Time;durP1;ratioP1;P1;durP2;ratioP2;P2;SDS_P1;SDS_P2;PMS_P1;PMS_P2;Temp;Humidity;BMP_temperature;BMP_pressure;BME280_temperature;BME280_humidity;BME280_pressure;Samples;Min_cycle;Max_cycle;Signal;HPM_P1;HPM_P2
2023/06/06 00:00:30;;;;;;;24.83;23.25;;;;;;;14.39;100.00;101507.97;5012281;28;20050;-82
2023/06/06 00:03:03;;;;;;;25.08;23.60;;;;;;;14.19;100.00;101505.34;4997073;28;20046;-82
2023/06/06 00:05:35;;;;;;;28.48;26.70;;;;;;;14.14;100.00;101508.66;5004766;28;20050;-83
2023/06/06 00:08:02;;;;;;;26.08;24.48;;;;;;;14.07;100.00;101501.69;5013569;28;20572;-77
2023/06/06 00:10:30;;;;;;;26.63;24.90;;;;;;;14.12;100.00;101513.41;4993760;28;20057;-77
2023/06/06 00:13:01;;;;;;;25.58;23.95;;;;;;;14.13;100.00;101509.72;4994473;28;20050;-77
2023/06/06 00:15:28;;;;;;;27.40;25.90;;;;;;;14.04;100.00;101510.13;4993405;28;20050;-77
2023/06/06 00:17:56;;;;;;;26.55;25.17;;;;;;;13.92;100.00;101507.31;4995094;28;20104;-77
2023/06/06 00:20:24;;;;;;;26.00;24.25;;;;;;;13.86;100.00;101514.28;4993116;28;20056;-77
2023/06/06 00:22:54;;;;;;;26.30;24.80;;;;;;;13.82;100.00;101510.38;4997562;28;20108;-77
2023/06/06 00:25:29;;;;;;;28.77;27.25;;;;;;;13.85;100.00;101507.28;5007271;28;20057;-82
2023/06/06 00:27:56;;;;;;;24.65;23.25;;;;;;;13.74;100.00;101499.94;5005148;28;20061;-77
2023/06/06 00:30:22;;;;;;;27.05;25.52;;;;;;;13.65;100.00;101499.31;5010470;28;20500;-77
2023/06/06 00:32:49;;;;;;;27.83;26.23;;;;;;;13.65;100.00;101502.00;5012859;28;20057;-82
2023/06/06 00:35:31;;;;;;;26.73;25.02;;;;;;;13.64;100.00;101499.53;5010891;28;20045;-81
2023/06/06 00:38:06;;;;;;;27.50;26.00;;;;;;;13.61;100.00;101498.06;5011083;28;20058;-83
2023/06/06 00:40:33;;;;;;;23.52;22.02;;;;;;;13.60;100.00;101493.78;5011349;28;20050;-78
2023/06/06 00:42:59;;;;;;;27.20;25.70;;;;;;;13.58;100.00;101498.50;5011851;28;20065;-83
2023/06/06 00:45:26;;;;;;;26.23;24.48;;;;;;;13.64;100.00;101496.84;5009300;28;20057;-82
2023/06/06 00:47:53;;;;;;;26.20;24.70;;;;;;;13.57;100.00;101499.53;4993624;28;20069;-77
2023/06/06 00:50:36;;;;;;;25.63;24.02;;;;;;;13.51;100.00;101493.16;4998367;28;20054;-77
2023/06/06 00:53:06;;;;;;;26.83;25.38;;;;;;;13.52;100.00;101489.50;5006991;28;20057;-82
2023/06/06 00:55:48;;;;;;;26.50;24.70;;;;;;;13.54;100.00;101502.63;5012848;28;20613;-82
2023/06/06 00:58:16;;;;;;;26.83;25.02;;;;;;;13.46;100.00;101503.66;5011421;28;20053;-83
2023/06/06 01:00:52;;;;;;;29.35;27.35;;;;;;;13.48;100.00;101498.09;4993524;28;20105;-82
2023/06/06 01:03:20;;;;;;;30.00;28.20;;;;;;;13.38;100.00;101503.03;5011839;28;20060;-82
2023/06/06 01:05:47;;;;;;;27.27;25.58;;;;;;;13.34;100.00;101501.78;5007099;28;20081;-77
2023/06/06 01:08:41;;;;;;;26.60;24.80;;;;;;;13.16;100.00;101505.88;4992363;28;20049;-77
2023/06/06 01:11:19;;;;;;;28.13;26.25;;;;;;;13.12;100.00;101507.28;4992709;28;20054;-77
2023/06/06 01:13:55;;;;;;;25.80;24.23;;;;;;;13.09;100.00;101507.69;4994775;28;20781;-77
2023/06/06 01:16:23;;;;;;;27.52;25.52;;;;;;;13.06;100.00;101506.25;5006299;28;20038;-77
2023/06/06 01:19:04;;;;;;;30.20;28.30;;;;;;;12.97;100.00;101499.47;5011373;28;20057;-77
2023/06/06 01:21:40;;;;;;;30.33;28.42;;;;;;;13.09;100.00;101493.53;5011382;28;20133;-77
2023/06/06 01:24:08;;;;;;;27.08;25.38;;;;;;;12.92;100.00;101498.41;5009993;28;20426;-77
2023/06/06 01:26:41;;;;;;;33.45;31.65;;;;;;;13.05;100.00;101490.47;5010105;28;20045;-77
2023/06/06 01:29:08;;;;;;;38.10;35.97;;;;;;;12.93;100.00;101490.25;5011226;28;20042;-77
2023/06/06 01:31:42;;;;;;;30.55;28.48;;;;;;;13.08;100.00;101484.72;5011255;28;20065;-77
2023/06/06 01:34:17;;;;;;;31.73;29.73;;;;;;;13.07;100.00;101491.06;5008700;28;20042;-77
2023/06/06 01:36:51;;;;;;;32.17;30.15;;;;;;;13.14;100.00;101489.25;5011656;28;20064;-77
2023/06/06 01:39:22;;;;;;;31.27;29.27;;;;;;;13.14;100.00;101478.56;4992030;28;20057;-77
2023/06/06 01:41:54;;;;;;;30.85;28.67;;;;;;;13.18;100.00;101478.97;4992086;28;20054;-77
2023/06/06 01:44:31;;;;;;;30.00;28.10;;;;;;;13.21;100.00;101478.56;4991873;28;20050;-77
2023/06/06 01:47:00;;;;;;;27.73;25.77;;;;;;;13.13;100.00;101482.28;4992071;28;20057;-77
2023/06/06 01:49:27;;;;;;;32.33;30.33;;;;;;;13.11;100.00;101470.16;5006178;28;20060;-77
2023/06/06 01:52:03;;;;;;;32.00;30.20;;;;;;;13.26;100.00;101481.47;4998189;28;20057;-78
2023/06/06 01:54:44;;;;;;;32.97;30.92;;;;;;;13.16;100.00;101479.19;5006856;28;20050;-77
2023/06/06 01:57:28;;;;;;;33.08;30.88;;;;;;;12.99;100.00;101481.44;5007655;28;20050;-77
2023/06/06 01:59:55;;;;;;;28.70;26.83;;;;;;;12.99;100.00;101489.44;4997058;28;20157;-77
2023/06/06 02:02:23;;;;;;;37.75;35.42;;;;;;;13.00;100.00;101475.06;4995846;28;20503;-77
2023/06/06 02:04:50;;;;;;;43.47;40.67;;;;;;;12.91;100.00;101484.28;4994827;28;20562;-77
2023/06/06 02:07:30;;;;;;;38.25;35.85;;;;;;;12.75;100.00;101480.16;5010852;28;20177;-76
2023/06/06 02:09:57;;;;;;;34.67;32.47;;;;;;;12.74;100.00;101480.38;5007393;28;20490;-77
2023/06/06 02:12:24;;;;;;;36.03;33.92;;;;;;;12.75;100.00;101496.16;5008809;28;20042;-77
2023/06/06 02:14:51;;;;;;;39.47;37.10;;;;;;;12.95;100.00;101501.53;5010073;28;20435;-77
2023/06/06 02:17:18;;;;;;;41.70;39.30;;;;;;;12.90;100.00;101509.31;5010594;28;20529;-77
2023/06/06 02:19:52;;;;;;;151.80;143.50;;;;;;;12.76;100.00;101505.78;5009862;28;20448;-78
2023/06/06 02:22:19;;;;;;;134.95;127.68;;;;;;;12.98;100.00;101505.63;5006267;28;20084;-77
2023/06/06 02:24:49;;;;;;;93.63;88.53;;;;;;;12.84;100.00;101502.13;5010885;28;20096;-82
2023/06/06 02:27:16;;;;;;;77.63;73.38;;;;;;;12.70;100.00;101508.44;5010365;28;20045;-77
2023/06/06 02:29:43;;;;;;;63.85;60.33;;;;;;;12.69;100.00;101515.59;5007969;28;20046;-77
2023/06/06 02:32:13;;;;;;;63.78;60.03;;;;;;;12.73;100.00;101513.34;5010678;28;20043;-77
2023/06/06 02:34:40;;;;;;;44.55;41.85;;;;;;;12.73;100.00;101526.69;5007730;28;20043;-77
2023/06/06 02:37:07;;;;;;;51.53;48.22;;;;;;;12.81;100.00;101519.31;5009174;28;20060;-77
2023/06/06 02:39:35;;;;;;;59.72;56.13;;;;;;;12.90;100.00;101519.97;5008937;28;20042;-77
2023/06/06 02:42:04;;;;;;;61.05;57.28;;;;;;;12.75;100.00;101519.31;5010851;28;20493;-77
2023/06/06 02:44:39;;;;;;;58.53;54.22;;;;;;;12.77;100.00;101514.63;5008748;28;20042;-77
2023/06/06 02:47:07;;;;;;;53.67;50.40;;;;;;;12.83;100.00;101517.28;4994033;28;20065;-77
2023/06/06 02:49:39;;;;;;;56.53;52.92;;;;;;;12.79;100.00;101526.69;4997046;28;20442;-77
2023/06/06 02:52:07;;;;;;;52.83;49.63;;;;;;;12.81;100.00;101530.00;5001304;28;20053;-77
2023/06/06 02:54:34;;;;;;;63.50;59.38;;;;;;;12.76;100.00;101524.44;5000859;28;20597;-77
2023/06/06 02:57:01;;;;;;;56.90;53.45;;;;;;;12.87;100.00;101519.56;5003675;28;20072;-77
2023/06/06 02:59:30;;;;;;;50.78;47.53;;;;;;;12.80;100.00;101519.53;5003911;28;20081;-77
2023/06/06 03:01:57;;;;;;;55.65;52.22;;;;;;;12.86;100.00;101524.06;5005788;28;20514;-77
2023/06/06 03:04:24;;;;;;;58.47;54.83;;;;;;;12.94;100.00;101521.19;5013614;28;20058;-77
2023/06/06 03:06:51;;;;;;;48.35;45.00;;;;;;;13.12;100.00;101528.63;5007697;28;20049;-77
2023/06/06 03:09:19;;;;;;;55.92;52.42;;;;;;;13.12;100.00;101530.47;5013246;28;20469;-77
2023/06/06 03:11:46;;;;;;;45.88;42.85;;;;;;;13.03;100.00;101524.50;5013825;28;20056;-82
2023/06/06 03:14:16;;;;;;;58.35;54.72;;;;;;;13.12;100.00;101527.81;5002120;28;20053;-82
2023/06/06 03:16:55;;;;;;;54.38;51.05;;;;;;;13.09;100.00;101521.03;5011810;28;20081;-82
2023/06/06 03:19:30;;;;;;;59.35;55.53;;;;;;;13.08;100.00;101524.72;5013990;28;20394;-82
2023/06/06 03:22:04;;;;;;;52.22;48.67;;;;;;;13.01;100.00;101531.88;5009976;28;20056;-77
2023/06/06 03:24:33;;;;;;;49.30;46.00;;;;;;;13.14;100.00;101533.78;5012428;28;20077;-77
2023/06/06 03:27:03;;;;;;;52.13;48.97;;;;;;;13.20;100.00;101527.63;5008960;28;20148;-77
2023/06/06 03:29:31;;;;;;;57.05;53.55;;;;;;;13.26;100.00;101526.84;5013134;28;20073;-76
2023/06/06 03:32:00;;;;;;;51.72;48.55;;;;;;;13.35;100.00;101522.13;5011355;28;20124;-77
2023/06/06 03:34:27;;;;;;;55.50;51.35;;;;;;;13.35;100.00;101522.13;5011229;28;20072;-77
2023/06/06 03:36:59;;;;;;;42.13;38.95;;;;;;;13.56;100.00;101529.13;5010790;28;20053;-77
2023/06/06 03:39:27;;;;;;;37.60;34.88;;;;;;;13.62;100.00;101522.94;5009373;28;20053;-77
2023/06/06 03:41:54;;;;;;;40.58;37.40;;;;;;;13.60;100.00;101525.81;5013369;28;20430;-76
2023/06/06 03:44:21;;;;;;;37.22;34.55;;;;;;;13.56;100.00;101519.25;5010988;28;20038;-77
2023/06/06 03:46:48;;;;;;;40.10;37.40;;;;;;;13.84;100.00;101523.53;5009443;28;20046;-82
2023/06/06 03:49:16;;;;;;;41.67;38.97;;;;;;;13.86;100.00;101521.50;5006727;28;20046;-82
2023/06/06 03:51:43;;;;;;;37.45;34.85;;;;;;;13.85;100.00;101520.63;5000165;28;20438;-82
2023/06/06 03:54:10;;;;;;;36.50;34.10;;;;;;;14.08;100.00;101532.75;5003361;28;20434;-82
2023/06/06 03:56:40;;;;;;;33.17;30.88;;;;;;;14.06;100.00;101535.59;4994327;28;20046;-82
2023/06/06 03:59:11;;;;;;;34.47;32.08;;;;;;;14.09;100.00;101529.84;5009545;28;20545;-81
2023/06/06 04:01:40;;;;;;;33.42;30.95;;;;;;;14.02;100.00;101534.38;5012386;28;20133;-82
2023/06/06 04:04:08;;;;;;;42.90;39.72;;;;;;;14.15;100.00;101534.34;5013993;28;20053;-82
2023/06/06 04:06:37;;;;;;;38.92;36.10;;;;;;;14.25;100.00;101527.75;4995403;28;20109;-78
2023/06/06 04:09:07;;;;;;;45.22;42.10;;;;;;;14.44;100.00;101529.53;5002647;28;20054;-77
2023/06/06 04:11:35;;;;;;;36.53;33.92;;;;;;;14.41;100.00;101535.31;4993996;28;20053;-81
2023/06/06 04:14:02;;;;;;;25.05;22.98;;;;;;;14.71;100.00;101530.28;4993807;28;20502;-77
2023/06/06 04:16:40;;;;;;;24.58;22.63;;;;;;;14.84;100.00;101538.22;4993554;28;20042;-77
2023/06/06 04:19:07;;;;;;;23.40;21.67;;;;;;;14.84;100.00;101534.72;5000212;28;20053;-77
2023/06/06 04:21:34;;;;;;;24.52;22.73;;;;;;;15.06;100.00;101541.38;5010013;28;20050;-77
2023/06/06 04:24:02;;;;;;;23.60;21.88;;;;;;;15.19;100.00;101543.16;5003888;28;20109;-77
2023/06/06 04:26:31;;;;;;;24.00;22.15;;;;;;;15.39;100.00;101543.00;5008577;28;20430;-77
2023/06/06 04:29:02;;;;;;;22.23;20.73;;;;;;;15.33;100.00;101541.19;5008323;28;20430;-77
2023/06/06 04:31:30;;;;;;;23.13;21.35;;;;;;;15.39;100.00;101529.63;4997082;28;20148;-77
2023/06/06 04:34:04;;;;;;;23.65;22.05;;;;;;;15.70;100.00;101534.16;5000044;28;20516;-77
2023/06/06 04:36:38;;;;;;;22.90;21.20;;;;;;;15.62;100.00;101538.94;5001156;28;20141;-77
2023/06/06 04:39:07;;;;;;;23.20;21.45;;;;;;;15.76;100.00;101533.25;5006448;28;20050;-77
2023/06/06 04:41:34;;;;;;;22.55;20.63;;;;;;;16.02;100.00;101537.53;4995388;28;20050;-78
2023/06/06 04:44:02;;;;;;;22.13;20.65;;;;;;;16.11;100.00;101531.88;4993151;28;20434;-77
2023/06/06 04:46:29;;;;;;;23.48;21.35;;;;;;;16.19;100.00;101545.81;5007775;28;20496;-77
2023/06/06 04:48:59;;;;;;;23.02;21.40;;;;;;;16.34;100.00;101547.28;4997333;28;20062;-77
2023/06/06 04:51:29;;;;;;;23.75;22.00;;;;;;;16.23;100.00;101538.13;5006946;28;20052;-77
2023/06/06 04:53:58;;;;;;;24.13;22.50;;;;;;;16.41;100.00;101538.13;5010359;28;20054;-77
2023/06/06 04:56:34;;;;;;;27.98;25.92;;;;;;;16.21;100.00;101538.34;5009016;28;20051;-82
2023/06/06 04:59:11;;;;;;;21.90;20.23;;;;;;;16.38;100.00;101530.53;5011738;28;20089;-82
2023/06/06 05:01:41;;;;;;;21.73;19.95;;;;;;;16.46;100.00;101532.91;5010406;28;20096;-82
2023/06/06 05:04:08;;;;;;;21.00;19.60;;;;;;;16.78;100.00;101527.38;5010261;28;20140;-82
2023/06/06 05:06:35;;;;;;;22.48;20.83;;;;;;;16.83;100.00;101530.19;5004337;28;20502;-82
2023/06/06 05:09:03;;;;;;;21.67;20.27;;;;;;;17.20;100.00;101526.56;5003922;28;20509;-82
2023/06/06 05:11:30;;;;;;;21.40;19.52;;;;;;;17.25;100.00;101532.06;5007197;28;20062;-83
2023/06/06 05:13:59;;;;;;;21.30;19.60;;;;;;;16.98;100.00;101527.09;5003616;28;20046;-83
2023/06/06 05:16:26;;;;;;;22.02;20.40;;;;;;;17.74;100.00;101536.22;5004942;28;20049;-83
2023/06/06 05:19:06;;;;;;;21.98;20.00;;;;;;;17.38;100.00;101535.34;5001546;28;20097;-83
2023/06/06 05:21:34;;;;;;;22.13;20.52;;;;;;;17.46;100.00;101534.22;5009030;28;20054;-83
2023/06/06 05:24:00;;;;;;;20.75;19.08;;;;;;;17.71;100.00;101530.50;5002906;28;20042;-83
2023/06/06 05:26:29;;;;;;;21.17;19.08;;;;;;;17.90;100.00;101534.72;5004328;28;20042;-77
2023/06/06 05:28:56;;;;;;;19.60;18.02;;;;;;;18.17;100.00;101526.16;4994779;28;20050;-77
2023/06/06 05:31:25;;;;;;;18.20;16.50;;;;;;;18.43;100.00;101538.25;5003015;28;20050;-77
2023/06/06 05:33:52;;;;;;;18.08;16.52;;;;;;;18.93;100.00;101533.03;5006657;28;20050;-78
2023/06/06 05:36:19;;;;;;;18.00;16.52;;;;;;;18.40;100.00;101539.53;5002653;28;20038;-78
2023/06/06 05:38:46;;;;;;;18.40;16.88;;;;;;;18.80;100.00;101543.31;5006964;28;20045;-78
2023/06/06 05:41:18;;;;;;;18.67;17.05;;;;;;;18.61;100.00;101540.78;4998555;28;20819;-77
2023/06/06 05:43:46;;;;;;;18.70;17.17;;;;;;;18.81;100.00;101536.84;5004150;28;20053;-78
2023/06/06 05:46:13;;;;;;;18.33;16.88;;;;;;;18.83;100.00;101549.00;5001167;28;20138;-78
2023/06/06 05:48:42;;;;;;;17.65;16.23;;;;;;;19.09;100.00;101541.38;5006720;28;20052;-82
2023/06/06 05:51:09;;;;;;;18.17;16.60;;;;;;;19.00;100.00;101540.97;5009412;28;20045;-83
2023/06/06 05:53:36;;;;;;;18.30;16.70;;;;;;;18.98;100.00;101548.47;5007772;28;20045;-83
2023/06/06 05:56:03;;;;;;;18.15;16.75;;;;;;;19.32;100.00;101556.59;4994045;28;20522;-83
2023/06/06 05:58:30;;;;;;;19.27;17.67;;;;;;;19.07;100.00;101552.41;4999457;28;20085;-83
2023/06/06 06:00:58;;;;;;;18.60;17.10;;;;;;;19.23;100.00;101550.81;5006192;28;20097;-83
2023/06/06 06:03:32;;;;;;;18.63;17.20;;;;;;;19.40;100.00;101548.94;5003778;28;20081;-83
2023/06/06 06:06:04;;;;;;;19.17;17.65;;;;;;;19.59;100.00;101544.09;5006232;28;20054;-83
2023/06/06 06:08:34;;;;;;;20.13;18.63;;;;;;;19.57;100.00;101548.09;5009748;28;20104;-84
2023/06/06 06:11:01;;;;;;;20.52;18.73;;;;;;;19.90;100.00;101548.09;4999805;28;20050;-83
2023/06/06 06:13:28;;;;;;;19.92;18.30;;;;;;;20.28;100.00;101546.47;4991505;28;20062;-84
2023/06/06 06:15:55;;;;;;;20.48;18.92;;;;;;;20.25;100.00;101548.84;4996537;28;20427;-83
2023/06/06 06:18:22;;;;;;;21.23;19.40;;;;;;;20.44;100.00;101547.47;4995690;28;20042;-83
2023/06/06 06:20:49;;;;;;;20.35;18.65;;;;;;;20.33;100.00;101545.69;5008481;28;20045;-84
2023/06/06 06:23:17;;;;;;;19.77;18.00;;;;;;;20.33;100.00;101541.13;4996257;28;20429;-84
2023/06/06 06:25:45;;;;;;;21.70;19.90;;;;;;;20.67;99.42;101548.31;4992217;28;20046;-83
2023/06/06 06:28:21;;;;;;;21.10;19.40;;;;;;;20.92;100.00;101542.34;5007242;28;20050;-83
2023/06/06 06:30:48;;;;;;;21.05;19.13;;;;;;;20.87;98.10;101545.78;4991485;28;20061;-84
2023/06/06 06:33:15;;;;;;;21.40;20.00;;;;;;;20.72;92.84;101538.34;4995148;28;20057;-84
2023/06/06 06:35:43;;;;;;;23.38;21.30;;;;;;;20.97;97.92;101539.69;5004023;28;20046;-78
2023/06/06 06:38:10;;;;;;;23.65;21.67;;;;;;;21.14;93.35;101537.69;4991116;28;20058;-78
2023/06/06 06:40:38;;;;;;;24.73;23.02;;;;;;;21.21;98.16;101537.47;5009656;28;20050;-84
2023/06/06 06:43:05;;;;;;;24.25;22.52;;;;;;;21.31;89.32;101542.16;4995421;28;20053;-83
2023/06/06 06:45:33;;;;;;;22.30;20.70;;;;;;;21.45;94.60;101548.78;4996659;28;20516;-84
2023/06/06 06:48:01;;;;;;;23.52;21.83;;;;;;;21.48;97.20;101553.66;5003184;28;20081;-84
2023/06/06 06:50:28;;;;;;;25.63;23.73;;;;;;;21.54;93.16;101543.69;4991810;28;20050;-83
2023/06/06 06:53:30;;;;;;;21.70;20.00;;;;;;;21.71;95.36;101550.59;5004800;28;20046;-84
2023/06/06 06:56:01;;;;;;;21.30;19.80;;;;;;;21.68;92.93;101556.50;4997936;28;20062;-86
2023/06/06 06:58:33;;;;;;;21.80;20.10;;;;;;;21.91;93.33;101552.63;4992153;28;20518;-84
2023/06/06 07:01:01;;;;;;;20.63;19.15;;;;;;;21.82;88.58;101561.50;5007780;28;20054;-85
2023/06/06 07:03:28;;;;;;;21.65;19.88;;;;;;;21.99;89.49;101556.72;5007116;28;20596;-84
2023/06/06 07:06:06;;;;;;;22.02;20.23;;;;;;;21.98;84.46;101556.97;4991220;28;20058;-78
2023/06/06 07:08:45;;;;;;;22.95;21.25;;;;;;;22.13;90.55;101559.75;4991248;28;20591;-78
2023/06/06 07:11:15;;;;;;;22.45;20.88;;;;;;;21.79;88.94;101556.59;4990766;28;20050;-77
2023/06/06 07:13:43;;;;;;;23.35;21.75;;;;;;;21.91;74.99;101552.63;4992335;28;20617;-84
2023/06/06 07:16:10;;;;;;;21.65;19.80;;;;;;;22.29;79.44;101552.56;5003785;28;20049;-78
2023/06/06 07:18:36;;;;;;;22.52;20.58;;;;;;;22.42;82.44;101557.47;5005048;28;20125;-84
2023/06/06 07:21:04;;;;;;;22.80;20.90;;;;;;;22.74;80.67;101549.19;5002970;28;20042;-84
2023/06/06 07:23:31;;;;;;;25.40;23.48;;;;;;;22.60;72.75;101550.75;5000292;28;20076;-84
2023/06/06 07:25:58;;;;;;;25.90;23.90;;;;;;;22.93;80.08;101545.97;5002895;28;20046;-84
2023/06/06 07:28:26;;;;;;;25.92;23.92;;;;;;;22.86;89.34;101548.94;4990424;28;20574;-78
2023/06/06 07:30:53;;;;;;;23.42;21.58;;;;;;;22.96;81.89;101548.19;4995265;28;20513;-84
2023/06/06 07:33:20;;;;;;;23.40;21.40;;;;;;;23.15;78.61;101545.75;5007646;28;20061;-83
2023/06/06 07:35:47;;;;;;;24.90;22.98;;;;;;;23.18;77.51;101546.03;5004104;28;20314;-84
2023/06/06 07:38:14;;;;;;;26.30;24.33;;;;;;;23.41;78.41;101549.28;5010183;28;20129;-85
2023/06/06 07:40:43;;;;;;;24.85;23.15;;;;;;;23.25;89.56;101541.16;5005873;28;20050;-84
2023/06/06 07:43:13;;;;;;;25.58;23.48;;;;;;;23.32;82.65;101549.00;5007754;28;20042;-85
2023/06/06 07:45:41;;;;;;;24.73;22.80;;;;;;;23.27;87.07;101547.13;5007637;28;20050;-78
2023/06/06 07:48:08;;;;;;;24.95;22.90;;;;;;;23.34;75.31;101551.47;5007465;28;20418;-77
2023/06/06 07:50:35;;;;;;;25.10;22.73;;;;;;;23.66;74.58;101557.41;5003101;28;20050;-78
2023/06/06 07:53:02;;;;;;;24.25;22.25;;;;;;;23.47;74.10;101556.34;4992642;28;20478;-78
2023/06/06 07:55:30;;;;;;;25.70;23.70;;;;;;;23.18;76.39;101548.75;4997048;28;20051;-78
2023/06/06 07:57:58;;;;;;;23.33;21.42;;;;;;;23.30;86.88;101548.50;5005793;28;20062;-78
2023/06/06 08:00:25;;;;;;;24.23;22.23;;;;;;;23.57;77.84;101550.91;5006837;28;20049;-83
2023/06/06 08:02:53;;;;;;;21.52;19.40;;;;;;;23.65;83.26;101531.38;5009152;28;20050;-85
2023/06/06 08:05:21;;;;;;;22.15;20.08;;;;;;;23.83;75.86;101531.91;5002157;28;20057;-83
2023/06/06 08:07:48;;;;;;;22.77;20.55;;;;;;;23.78;82.77;101538.13;5007827;28;20049;-85
2023/06/06 08:10:15;;;;;;;21.42;19.63;;;;;;;23.13;100.00;101547.94;5001178;28;20061;-81
2023/06/06 08:12:43;;;;;;;23.35;21.10;;;;;;;23.69;86.07;101535.19;5004055;28;20049;-85
2023/06/06 08:15:11;;;;;;;24.17;22.27;;;;;;;23.82;78.14;101541.94;5008067;28;20041;-83
2023/06/06 08:17:47;;;;;;;21.50;19.67;;;;;;;23.80;80.43;101540.59;5001771;28;20563;-83
2023/06/06 08:20:16;;;;;;;21.27;19.67;;;;;;;24.04;95.36;101532.66;5005496;28;20053;-78
2023/06/06 08:22:52;;;;;;;22.40;20.42;;;;;;;24.40;78.20;101525.19;4996167;28;20507;-78
2023/06/06 08:25:19;;;;;;;22.33;20.67;;;;;;;24.58;76.95;101534.63;5003683;28;20046;-78
2023/06/06 08:27:46;;;;;;;22.77;21.00;;;;;;;24.79;63.25;101527.16;5004895;28;20045;-78
2023/06/06 08:30:15;;;;;;;22.58;20.75;;;;;;;24.42;74.00;101526.56;5000548;28;20419;-85
2023/06/06 08:32:41;;;;;;;21.10;19.55;;;;;;;24.30;80.09;101526.06;5000269;28;20054;-84
2023/06/06 08:35:11;;;;;;;22.05;20.30;;;;;;;24.54;67.46;101518.09;5009492;28;20069;-85
2023/06/06 08:37:39;;;;;;;22.45;20.60;;;;;;;24.80;70.43;101532.31;5000511;28;20043;-84
2023/06/06 08:40:08;;;;;;;22.77;21.08;;;;;;;24.50;75.33;101521.63;4998579;28;20076;-84
2023/06/06 08:42:41;;;;;;;21.52;19.83;;;;;;;24.90;73.60;101537.69;5005540;28;20046;-84
2023/06/06 08:45:11;;;;;;;22.25;20.45;;;;;;;24.54;77.39;101518.09;5002959;28;20042;-78
2023/06/06 08:47:39;;;;;;;24.52;22.58;;;;;;;25.07;71.68;101531.03;5005752;28;20042;-78
2023/06/06 08:50:07;;;;;;;24.13;22.13;;;;;;;24.94;68.20;101523.53;5005380;28;20046;-78
2023/06/06 08:52:46;;;;;;;23.75;21.75;;;;;;;24.65;77.10;101526.97;4995554;28;20054;-77
2023/06/06 08:55:20;;;;;;;33.88;31.35;;;;;;;24.51;75.21;101521.38;5003182;28;20062;-78
2023/06/06 08:57:49;;;;;;;42.05;39.50;;;;;;;23.94;94.30;101520.75;5003752;28;20568;-78
2023/06/06 09:00:22;;;;;;;48.42;45.42;;;;;;;24.75;76.34;101528.81;5000251;28;20062;-78
2023/06/06 09:02:50;;;;;;;45.13;42.33;;;;;;;25.06;62.60;101507.69;5004238;28;20057;-78
2023/06/06 09:05:20;;;;;;;42.00;39.35;;;;;;;25.54;68.09;101521.41;5003401;28;20043;-77
2023/06/06 09:07:50;;;;;;;38.47;35.60;;;;;;;25.12;61.14;101514.69;5001549;28;20113;-78
2023/06/06 09:10:17;;;;;;;39.53;37.05;;;;;;;25.05;61.49;101512.31;4997044;28;20423;-78
2023/06/06 09:12:50;;;;;;;43.17;39.05;;;;;;;25.41;60.20;101512.00;5004885;28;20054;-78
2023/06/06 09:15:17;;;;;;;41.40;37.97;;;;;;;25.31;63.66;101512.91;4992839;28;20053;-78
2023/06/06 09:17:46;;;;;;;37.70;35.10;;;;;;;25.51;55.09;101502.97;4996298;28;20046;-78
2023/06/06 09:20:15;;;;;;;46.05;42.95;;;;;;;25.41;61.89;101498.41;5003614;28;20042;-77
2023/06/06 09:22:57;;;;;;;48.38;43.85;;;;;;;25.64;52.21;101501.47;5000772;28;20886;-78
2023/06/06 09:25:27;;;;;;;46.45;43.05;;;;;;;25.39;50.95;101497.06;5004514;28;20808;-78
2023/06/06 09:28:05;;;;;;;45.15;41.78;;;;;;;25.49;57.88;101489.63;5006517;28;20053;-78
2023/06/06 09:30:35;;;;;;;43.83;40.60;;;;;;;25.72;62.69;101477.16;4995920;28;20045;-78
2023/06/06 09:33:03;;;;;;;41.95;38.85;;;;;;;25.64;54.45;101476.97;4992541;28;20046;-78
2023/06/06 09:35:31;;;;;;;43.17;40.13;;;;;;;25.80;57.40;101478.41;4997401;28;20112;-77
2023/06/06 09:38:07;;;;;;;39.65;36.45;;;;;;;25.85;51.82;101475.66;5005193;28;20082;-78
2023/06/06 09:40:34;;;;;;;38.13;35.17;;;;;;;26.07;56.67;101472.41;4998330;28;20042;-78
2023/06/06 09:43:01;;;;;;;44.70;40.83;;;;;;;25.85;56.50;101478.41;5003815;28;20053;-77
2023/06/06 09:45:28;;;;;;;42.13;39.22;;;;;;;25.90;55.13;101477.50;4997826;28;20054;-84
2023/06/06 09:47:55;;;;;;;41.83;38.25;;;;;;;26.13;57.72;101478.59;5007938;28;20054;-85
2023/06/06 09:50:22;;;;;;;35.20;32.75;;;;;;;25.69;55.84;101487.78;4998605;28;20513;-85
2023/06/06 09:52:52;;;;;;;39.75;37.35;;;;;;;26.11;56.77;101484.31;5004460;28;20062;-84
2023/06/06 09:55:22;;;;;;;36.67;34.17;;;;;;;25.79;54.88;101465.91;5002134;28;20874;-84
2023/06/06 09:57:54;;;;;;;39.20;36.45;;;;;;;25.97;54.94;101478.78;5002471;28;20046;-84
2023/06/06 10:00:23;;;;;;;41.30;38.42;;;;;;;26.07;54.66;101477.03;4992429;28;20139;-85
2023/06/06 10:02:50;;;;;;;39.78;36.88;;;;;;;26.39;61.07;101470.91;5008247;28;20042;-83
2023/06/06 10:05:17;;;;;;;44.22;41.15;;;;;;;26.23;58.39;101465.66;4998250;28;20441;-83
2023/06/06 10:07:50;;;;;;;36.13;33.53;;;;;;;26.78;62.49;101473.34;4995956;28;20050;-78
2023/06/06 10:10:18;;;;;;;25.05;23.15;;;;;;;26.46;60.02;101453.06;4996924;28;20129;-78
2023/06/06 10:12:49;;;;;;;25.13;23.05;;;;;;;26.60;56.90;101458.63;5002344;28;20081;-77
2023/06/06 10:15:30;;;;;;;33.13;30.77;;;;;;;26.45;58.03;101459.63;4661609;28;9999821;-78
2023/06/06 10:18:00;;;;;;;35.38;32.92;;;;;;;26.49;62.95;101455.22;5000502;28;20320;-78
2023/06/06 10:20:41;;;;;;;33.45;30.85;;;;;;;26.73;62.00;101451.59;5006702;28;20053;-78
2023/06/06 10:23:08;;;;;;;33.83;31.52;;;;;;;26.94;55.20;101444.72;5004173;28;20049;-78
2023/06/06 10:25:37;;;;;;;32.13;29.73;;;;;;;26.53;59.49;101446.47;5000255;28;20054;-78
2023/06/06 10:28:13;;;;;;;33.40;30.77;;;;;;;26.76;54.07;101447.47;4998466;28;20046;-78
2023/06/06 10:30:51;;;;;;;31.15;28.75;;;;;;;25.81;68.09;101429.19;4997758;28;20497;-77
2023/06/06 10:33:32;;;;;;;34.83;32.13;;;;;;;26.73;60.79;101446.16;4996842;28;20051;-84
2023/06/06 10:36:04;;;;;;;33.55;31.35;;;;;;;27.17;61.31;101436.69;4996588;28;20057;-83
2023/06/06 10:38:33;;;;;;;38.70;36.17;;;;;;;27.40;58.53;101426.75;4996368;28;20068;-78
2023/06/06 10:41:00;;;;;;;30.10;28.10;;;;;;;27.17;60.55;101418.44;4999479;28;20046;-78
2023/06/06 10:43:52;;;;;;;28.63;26.45;;;;;;;27.48;55.28;101415.13;4999558;28;20055;-77
2023/06/06 10:46:19;;;;;;;;;;;;;;;26.39;65.54;101416.44;5003015;28;20058;-85
2023/06/06 10:48:56;;;;;;;22.45;20.75;;;;;;;26.92;61.45;101413.41;4995122;28;20386;-78
2023/06/06 10:51:34;;;;;;;21.45;19.85;;;;;;;27.27;55.95;101408.47;4991092;28;20050;-78
2023/06/06 10:54:20;;;;;;;22.73;20.80;;;;;;;26.60;66.76;101414.22;4995274;28;20054;-78
2023/06/06 10:56:55;;;;;;;21.05;19.45;;;;;;;27.39;56.68;101404.13;4994561;28;20051;-78
2023/06/06 10:59:26;;;;;;;22.92;20.98;;;;;;;27.39;60.42;101412.28;4995644;28;20061;-84
2023/06/06 11:01:53;;;;;;;22.77;20.83;;;;;;;27.42;52.35;101416.34;4995442;28;20510;-83
2023/06/06 11:04:40;;;;;;;22.70;20.50;;;;;;;27.73;53.84;101416.53;4995903;28;20058;-84
2023/06/06 11:07:16;;;;;;;22.85;20.45;;;;;;;27.52;55.99;101416.13;5006400;28;20136;-83
2023/06/06 11:09:48;;;;;;;24.58;22.23;;;;;;;27.40;53.05;101407.66;5009357;28;20498;-78
2023/06/06 11:12:30;;;;;;;24.10;21.00;;;;;;;28.05;55.64;101412.06;5010015;28;20116;-83
2023/06/06 11:15:04;;;;;;;22.23;20.20;;;;;;;27.81;58.31;101406.84;5013122;28;20053;-83
2023/06/06 11:17:44;;;;;;;23.02;21.27;;;;;;;27.27;53.91;101408.47;4995196;28;20132;-83